createdAt,value
2019-02-11T00:01:00.188Z,5.65
2019-02-11T00:02:07.412Z,5.64
2019-02-11T00:03:14.375Z,5.65
2019-02-11T00:04:20.934Z,5.62
2019-02-11T00:05:28.039Z,5.65
2019-02-11T00:06:35.159Z,5.62
2019-02-11T00:07:42.294Z,5.64
2019-02-11T00:08:49.360Z,5.64
2019-02-11T00:09:56.559Z,5.63
2019-02-11T00:11:03.210Z,5.62
2019-02-11T00:12:14.887Z,5.62
2019-02-11T00:13:17.206Z,5.62
2019-02-11T00:14:24.247Z,5.62
2019-02-11T00:15:31.379Z,5.60
2019-02-11T00:16:38.527Z,5.60
2019-02-11T00:17:45.691Z,5.61
2019-02-11T00:18:52.451Z,5.60
2019-02-11T00:19:59.106Z,5.61
2019-02-11T00:21:06.324Z,5.59
2019-02-11T00:22:12.857Z,5.59
2019-02-11T00:23:19.935Z,5.59
2019-02-11T00:24:27.061Z,5.61
2019-02-11T00:25:34.216Z,5.59
2019-02-11T00:26:41.339Z,5.59
2019-02-11T00:27:48.185Z,5.58
2019-02-11T00:28:55.312Z,5.59
2019-02-11T00:30:02.423Z,5.59
2019-02-11T00:31:09.446Z,5.58
2019-02-11T00:32:16.024Z,5.58
2019-02-11T00:33:23.204Z,5.56
2019-02-11T00:34:29.891Z,5.57
2019-02-11T00:35:37.112Z,5.56
2019-02-11T00:36:43.732Z,5.57
2019-02-11T00:37:50.880Z,5.55
2019-02-11T00:38:57.907Z,5.56
2019-02-11T00:40:04.820Z,5.55
2019-02-11T00:41:11.708Z,5.55
2019-02-11T00:42:18.335Z,5.53
2019-02-11T00:43:25.500Z,5.55
2019-02-11T00:44:32.599Z,5.55
2019-02-11T00:45:39.648Z,5.53
2019-02-11T00:46:46.772Z,5.52
2019-02-11T00:47:53.935Z,5.51
2019-02-11T00:49:00.546Z,5.52
2019-02-11T00:50:07.291Z,5.54
2019-02-11T00:51:13.973Z,5.53
2019-02-11T00:52:21.004Z,5.51
2019-02-11T00:53:28.073Z,5.52
2019-02-11T00:54:35.122Z,5.52
2019-02-11T00:55:42.265Z,5.52
2019-02-11T00:56:49.436Z,5.52
2019-02-11T00:57:56.507Z,5.51
2019-02-11T00:59:03.712Z,5.52
2019-02-11T01:00:10.435Z,5.52
2019-02-11T01:01:17.487Z,5.52
2019-02-11T01:02:24.122Z,5.51
2019-02-11T01:03:31.219Z,5.51
2019-02-11T01:04:38.389Z,5.51
2019-02-11T01:05:45.454Z,5.52
2019-02-11T01:06:52.629Z,5.51
2019-02-11T01:07:59.473Z,5.51
2019-02-11T01:09:06.196Z,5.50
2019-02-11T01:10:12.780Z,5.51
2019-02-11T01:11:19.924Z,5.50
2019-02-11T01:12:26.987Z,5.50
2019-02-11T01:13:34.140Z,5.49
2019-02-11T01:14:41.267Z,5.50
2019-02-11T01:15:48.420Z,5.49
2019-02-11T01:16:55.130Z,5.49
2019-02-11T01:18:01.631Z,5.49
2019-02-11T01:19:08.812Z,5.50
2019-02-11T01:20:15.456Z,5.48
2019-02-11T01:21:22.648Z,5.49
2019-02-11T01:22:29.200Z,5.50
2019-02-11T01:23:36.407Z,5.49
2019-02-11T01:24:43.052Z,5.49
2019-02-11T01:25:50.188Z,5.48
2019-02-11T01:26:57.372Z,5.48
2019-02-11T01:28:04.463Z,5.49
2019-02-11T01:29:11.680Z,5.49
2019-02-11T01:30:18.363Z,5.48
2019-02-11T01:31:24.960Z,5.49
2019-02-11T01:32:32.083Z,5.47
2019-02-11T01:33:39.237Z,5.48
2019-02-11T01:34:45.851Z,5.46
2019-02-11T01:35:53.003Z,5.47
2019-02-11T01:36:59.594Z,5.46
2019-02-11T01:38:06.856Z,5.47
2019-02-11T01:39:13.509Z,5.48
2019-02-11T01:40:20.658Z,5.46
2019-02-11T01:41:27.353Z,5.46
2019-02-11T01:42:34.012Z,5.46
2019-02-11T01:43:41.135Z,5.46
2019-02-11T01:44:48.290Z,5.45
2019-02-11T01:45:54.816Z,5.46
2019-02-11T01:47:02.005Z,5.46
2019-02-11T01:48:08.724Z,5.44
2019-02-11T01:49:15.283Z,5.46
2019-02-11T01:50:22.508Z,5.44
2019-02-11T01:51:29.228Z,5.45
2019-02-11T01:52:36.396Z,5.46
2019-02-11T01:53:42.922Z,5.47
2019-02-11T01:54:50.025Z,5.45
2019-02-11T01:55:57.093Z,5.45
2019-02-11T01:57:04.275Z,5.44
2019-02-11T01:58:10.839Z,5.45
2019-02-11T01:59:18.028Z,5.45
2019-02-11T02:00:24.772Z,5.43
2019-02-11T02:01:31.970Z,5.42
2019-02-11T02:02:38.613Z,5.42
2019-02-11T02:03:45.236Z,5.43
2019-02-11T02:04:52.455Z,5.43
2019-02-11T02:05:59.131Z,5.43
2019-02-11T02:07:06.305Z,5.44
2019-02-11T02:08:12.931Z,5.42
2019-02-11T02:09:20.061Z,5.43
2019-02-11T02:10:26.683Z,5.42
2019-02-11T02:11:33.887Z,5.43
2019-02-11T02:12:40.525Z,5.41
2019-02-11T02:13:47.641Z,5.41
2019-02-11T02:14:54.787Z,5.42
2019-02-11T02:16:01.913Z,5.42
2019-02-11T02:17:09.096Z,5.41
2019-02-11T02:18:15.764Z,5.40
2019-02-11T02:19:22.469Z,5.41
2019-02-11T02:20:29.007Z,5.40
2019-02-11T02:21:36.157Z,5.40
2019-02-11T02:22:42.777Z,5.39
2019-02-11T02:23:49.949Z,5.41
2019-02-11T02:24:57.015Z,5.40
2019-02-11T02:26:04.139Z,5.40
2019-02-11T02:27:11.194Z,5.40
2019-02-11T02:28:18.301Z,5.41
2019-02-11T02:29:25.499Z,5.40
2019-02-11T02:30:32.103Z,5.39
2019-02-11T02:31:39.239Z,5.39
2019-02-11T02:32:46.308Z,5.39
2019-02-11T02:33:53.517Z,5.37
2019-02-11T02:35:00.301Z,5.38
2019-02-11T02:36:07.093Z,5.37
2019-02-11T02:37:13.670Z,5.36
2019-02-11T02:38:20.803Z,5.38
2019-02-11T02:39:27.963Z,5.38
2019-02-11T02:40:35.091Z,5.38
2019-02-11T02:41:42.269Z,5.39
2019-02-11T02:42:49.441Z,5.38
2019-02-11T02:43:56.444Z,5.39
2019-02-11T02:45:03.617Z,5.38
2019-02-11T02:46:10.620Z,5.37
2019-02-11T02:47:17.723Z,5.38
2019-02-11T02:48:24.803Z,5.37
2019-02-11T02:49:31.937Z,5.38
2019-02-11T02:50:39.280Z,5.37
2019-02-11T02:51:45.965Z,5.37
2019-02-11T02:52:52.628Z,5.36
2019-02-11T02:53:59.741Z,5.37
2019-02-11T02:55:06.978Z,5.36
2019-02-11T02:56:13.632Z,5.36
2019-02-11T02:57:20.759Z,5.36
2019-02-11T02:58:27.876Z,5.36
2019-02-11T02:59:35.012Z,5.35
2019-02-11T03:00:42.105Z,5.35
2019-02-11T03:01:49.220Z,5.36
2019-02-11T03:02:56.324Z,5.36
2019-02-11T03:04:03.435Z,5.36
2019-02-11T03:05:10.528Z,5.37
2019-02-11T03:06:17.652Z,5.35
2019-02-11T03:07:24.329Z,5.36
2019-02-11T03:08:31.435Z,5.36
2019-02-11T03:09:38.652Z,5.35
2019-02-11T03:10:45.263Z,5.36
2019-02-11T03:11:52.432Z,5.34
2019-02-11T03:12:59.559Z,5.34
2019-02-11T03:14:06.742Z,5.34
2019-02-11T03:15:13.287Z,5.34
2019-02-11T03:16:20.467Z,5.33
2019-02-11T03:17:27.567Z,5.33
2019-02-11T03:18:34.671Z,5.33
2019-02-11T03:19:41.806Z,5.32
2019-02-11T03:20:48.938Z,5.31
2019-02-11T03:21:55.520Z,5.33
2019-02-11T03:23:02.613Z,5.32
2019-02-11T03:24:09.752Z,5.31
2019-02-11T03:25:16.957Z,5.31
2019-02-11T03:26:23.675Z,5.32
2019-02-11T03:27:30.368Z,5.31
2019-02-11T03:28:37.620Z,5.32
2019-02-11T03:29:44.300Z,5.31
2019-02-11T03:30:51.442Z,5.31
2019-02-11T03:31:59.995Z,5.30
2019-02-11T03:33:05.742Z,5.31
2019-02-11T03:34:12.347Z,5.30
2019-02-11T03:35:19.490Z,5.30
2019-02-11T03:36:26.620Z,5.30
2019-02-11T03:37:33.262Z,5.28
2019-02-11T03:38:40.356Z,5.28
2019-02-11T03:39:47.513Z,5.28
2019-02-11T03:40:54.625Z,5.28
2019-02-11T03:42:01.713Z,5.28
2019-02-11T03:43:08.997Z,5.28
2019-02-11T03:44:15.697Z,5.27
2019-02-11T03:45:22.874Z,5.25
2019-02-11T03:46:29.432Z,5.26
2019-02-11T03:47:36.540Z,5.26
2019-02-11T03:48:43.685Z,5.25
2019-02-11T03:49:50.311Z,5.25
2019-02-11T03:50:57.499Z,5.25
2019-02-11T03:52:04.030Z,5.25
2019-02-11T03:53:11.148Z,5.26
2019-02-11T03:54:18.271Z,5.24
2019-02-11T03:55:25.405Z,5.22
2019-02-11T03:56:32.520Z,5.25
2019-02-11T03:57:39.231Z,5.22
2019-02-11T03:58:45.832Z,5.21
2019-02-11T03:59:53.058Z,5.21
2019-02-11T04:00:59.644Z,5.21
2019-02-11T04:02:06.875Z,5.22
2019-02-11T04:03:13.481Z,5.20
2019-02-11T04:04:20.624Z,5.20
2019-02-11T04:05:27.263Z,5.20
2019-02-11T04:06:34.404Z,5.20
2019-02-11T04:07:41.544Z,5.20
2019-02-11T04:08:48.211Z,5.18
2019-02-11T04:09:55.346Z,5.18
2019-02-11T04:11:02.047Z,5.18
2019-02-11T04:12:08.751Z,5.18
2019-02-11T04:13:15.336Z,5.17
2019-02-11T04:14:24.962Z,5.17
2019-02-11T04:15:29.287Z,5.16
2019-02-11T04:16:35.949Z,5.17
2019-02-11T04:17:43.038Z,5.17
2019-02-11T04:18:50.222Z,5.17
2019-02-11T04:19:56.809Z,5.16
2019-02-11T04:21:04.147Z,5.16
2019-02-11T04:22:11.000Z,5.15
2019-02-11T04:23:18.200Z,5.15
2019-02-11T04:24:24.851Z,5.15
2019-02-11T04:25:31.929Z,5.14
2019-02-11T04:26:39.150Z,5.13
2019-02-11T04:27:45.999Z,5.13
2019-02-11T04:28:52.684Z,5.13
2019-02-11T04:29:59.773Z,5.13
2019-02-11T04:31:07.018Z,5.13
2019-02-11T04:32:13.556Z,5.13
2019-02-11T04:33:20.612Z,5.12
2019-02-11T04:34:27.716Z,5.09
2019-02-11T04:35:34.920Z,5.11
2019-02-11T04:36:41.599Z,5.10
2019-02-11T04:37:48.323Z,5.10
2019-02-11T04:38:55.546Z,5.09
2019-02-11T04:40:02.269Z,5.06
2019-02-11T04:41:09.308Z,5.11
2019-02-11T04:42:16.071Z,5.09
2019-02-11T04:43:22.731Z,5.08
2019-02-11T04:44:34.071Z,5.08
2019-02-11T04:45:36.646Z,5.07
2019-02-11T04:46:43.232Z,5.07
2019-02-11T04:47:50.393Z,5.07
2019-02-11T04:48:57.531Z,5.05
2019-02-11T04:50:04.184Z,5.04
2019-02-11T04:51:10.940Z,5.05
2019-02-11T04:52:18.144Z,5.04
2019-02-11T04:53:24.908Z,5.02
2019-02-11T04:54:31.736Z,5.03
2019-02-11T04:55:38.933Z,5.01
2019-02-11T04:56:45.598Z,5.02
2019-02-11T04:57:52.299Z,5.00
2019-02-11T04:58:58.936Z,5.00
2019-02-11T05:00:06.094Z,4.99
2019-02-11T05:01:12.988Z,4.97
2019-02-11T05:02:20.179Z,4.97
2019-02-11T05:03:26.820Z,4.97
2019-02-11T05:04:33.948Z,4.97
2019-02-11T05:05:41.097Z,4.95
2019-02-11T05:06:48.251Z,4.97
2019-02-11T05:07:55.369Z,4.96
2019-02-11T05:09:02.545Z,4.95
2019-02-11T05:10:09.584Z,4.94
2019-02-11T05:11:16.773Z,4.94
2019-02-11T05:12:23.972Z,4.93
2019-02-11T05:13:30.591Z,4.92
2019-02-11T05:14:43.901Z,4.92
2019-02-11T05:15:44.523Z,4.91
2019-02-11T05:16:51.223Z,4.90
2019-02-11T05:17:58.399Z,4.91
2019-02-11T05:19:05.005Z,4.91
2019-02-11T05:20:12.120Z,4.88
2019-02-11T05:21:18.812Z,4.88
2019-02-11T05:22:25.999Z,4.88
2019-02-11T05:23:32.658Z,4.89
2019-02-11T05:24:39.768Z,4.89
2019-02-11T05:25:46.849Z,4.86
2019-02-11T05:26:54.001Z,4.86
2019-02-11T05:28:00.649Z,4.85
2019-02-11T05:29:07.836Z,4.85
2019-02-11T05:30:14.512Z,4.87
2019-02-11T05:31:21.950Z,4.84
2019-02-11T05:32:28.644Z,4.84
2019-02-11T05:33:35.154Z,4.83
2019-02-11T05:34:42.237Z,4.85
2019-02-11T05:35:49.348Z,4.84
2019-02-11T05:36:56.516Z,4.84
2019-02-11T05:38:03.258Z,4.81
2019-02-11T05:39:09.947Z,4.81
2019-02-11T05:40:17.106Z,4.83
2019-02-11T05:41:23.801Z,4.83
2019-02-11T05:42:30.888Z,4.81
2019-02-11T05:43:38.341Z,4.80
2019-02-11T05:44:53.669Z,4.81
2019-02-11T05:45:52.100Z,4.80
2019-02-11T05:46:58.712Z,4.80
2019-02-11T05:48:05.909Z,4.81
2019-02-11T05:49:12.527Z,4.80
2019-02-11T05:50:19.591Z,4.79
2019-02-11T05:51:26.656Z,4.80
2019-02-11T05:52:33.684Z,4.80
2019-02-11T05:53:41.096Z,4.81
2019-02-11T05:54:47.625Z,4.81
2019-02-11T05:55:54.708Z,4.81
2019-02-11T05:57:01.788Z,4.81
2019-02-11T05:58:08.985Z,4.81
2019-02-11T05:59:15.633Z,4.81
2019-02-11T06:00:22.806Z,4.81
2019-02-11T06:01:29.915Z,4.80
2019-02-11T06:02:37.114Z,4.80
2019-02-11T06:03:43.764Z,4.80
2019-02-11T06:04:51.209Z,4.79
2019-02-11T06:05:57.820Z,4.80
2019-02-11T06:07:04.952Z,4.80
2019-02-11T06:08:12.105Z,4.80
2019-02-11T06:09:18.740Z,4.80
2019-02-11T06:10:25.856Z,4.80
2019-02-11T06:11:33.005Z,4.79
2019-02-11T06:12:40.156Z,4.78
2019-02-11T06:13:47.140Z,4.79
2019-02-11T06:15:02.641Z,4.79
2019-02-11T06:16:01.420Z,4.79
2019-02-11T06:17:08.611Z,4.78
2019-02-11T06:18:15.230Z,4.79
2019-02-11T06:19:22.388Z,4.79
2019-02-11T06:20:28.992Z,4.79
2019-02-11T06:21:35.645Z,4.80
2019-02-11T06:22:42.737Z,4.79
2019-02-11T06:23:49.773Z,4.79
2019-02-11T06:24:56.891Z,4.78
2019-02-11T06:26:04.091Z,4.79
2019-02-11T06:27:10.663Z,4.77
2019-02-11T06:28:18.029Z,4.78
2019-02-11T06:29:24.801Z,4.80
2019-02-11T06:30:31.388Z,4.79
2019-02-11T06:31:38.555Z,4.79
2019-02-11T06:32:45.719Z,4.80
2019-02-11T06:33:52.417Z,4.76
2019-02-11T06:34:59.060Z,4.78
2019-02-11T06:36:12.233Z,4.78
2019-02-11T06:37:13.323Z,4.78
2019-02-11T06:38:20.455Z,4.78
2019-02-11T06:39:27.508Z,4.78
2019-02-11T06:40:34.644Z,4.78
2019-02-11T06:41:41.756Z,4.76
2019-02-11T06:42:48.875Z,4.77
2019-02-11T06:43:56.027Z,4.78
2019-02-11T06:45:03.105Z,4.75
2019-02-11T06:46:09.883Z,4.76
2019-02-11T06:47:16.945Z,4.75
2019-02-11T06:48:24.163Z,4.75
2019-02-11T06:49:31.241Z,4.75
2019-02-11T06:50:38.376Z,4.76
2019-02-11T06:51:45.399Z,4.76
2019-02-11T06:52:52.545Z,4.74
2019-02-11T06:53:59.671Z,4.75
2019-02-11T06:55:06.900Z,4.75
2019-02-11T06:56:13.817Z,4.73
2019-02-11T06:57:20.963Z,4.74
2019-02-11T06:58:28.074Z,4.72
2019-02-11T06:59:34.968Z,4.72
2019-02-11T07:00:42.064Z,4.71
2019-02-11T07:01:49.219Z,4.72
2019-02-11T07:02:55.839Z,4.71
2019-02-11T07:04:03.019Z,4.71
2019-02-11T07:05:09.579Z,4.71
2019-02-11T07:06:16.672Z,4.71
2019-02-11T07:07:23.831Z,4.70
2019-02-11T07:08:30.920Z,4.69
2019-02-11T07:09:38.080Z,4.70
2019-02-11T07:10:45.168Z,4.69
2019-02-11T07:11:52.338Z,4.68
2019-02-11T07:12:59.420Z,4.68
2019-02-11T07:14:06.631Z,4.68
2019-02-11T07:15:21.202Z,4.67
2019-02-11T07:16:20.361Z,4.67
2019-02-11T07:17:27.500Z,4.66
2019-02-11T07:18:37.050Z,4.66
2019-02-11T07:19:41.712Z,4.67
2019-02-11T07:20:48.795Z,4.66
2019-02-11T07:21:55.895Z,4.67
2019-02-11T07:23:03.046Z,4.65
2019-02-11T07:24:09.700Z,4.65
2019-02-11T07:25:16.921Z,4.64
2019-02-11T07:26:23.576Z,4.64
2019-02-11T07:27:30.712Z,4.63
2019-02-11T07:28:37.456Z,4.65
2019-02-11T07:29:44.128Z,4.65
2019-02-11T07:30:50.755Z,4.64
2019-02-11T07:31:57.835Z,4.63
2019-02-11T07:33:05.016Z,4.62
2019-02-11T07:34:11.590Z,4.63
2019-02-11T07:35:18.717Z,4.63
2019-02-11T07:36:25.868Z,4.63
2019-02-11T07:37:32.958Z,4.63
2019-02-11T07:38:40.045Z,4.64
2019-02-11T07:39:47.231Z,4.64
2019-02-11T07:40:53.887Z,4.64
2019-02-11T07:42:00.961Z,4.63
2019-02-11T07:43:07.767Z,4.64
2019-02-11T07:44:14.678Z,4.64
2019-02-11T07:45:29.697Z,4.63
2019-02-11T07:46:28.616Z,4.63
2019-02-11T07:47:35.312Z,4.64
2019-02-11T07:48:42.432Z,4.63
2019-02-11T07:49:49.560Z,4.63
2019-02-11T07:50:56.704Z,4.65
2019-02-11T07:52:03.667Z,4.63
2019-02-11T07:53:10.304Z,4.65
2019-02-11T07:54:17.456Z,4.63
2019-02-11T07:55:24.467Z,4.64
2019-02-11T07:56:31.624Z,4.65
2019-02-11T07:57:38.784Z,4.64
2019-02-11T07:58:45.376Z,4.63
2019-02-11T07:59:52.531Z,4.65
2019-02-11T08:00:59.619Z,4.65
2019-02-11T08:02:06.884Z,4.65
2019-02-11T08:03:13.508Z,4.65
2019-02-11T08:04:20.649Z,4.65
2019-02-11T08:05:27.813Z,4.66
2019-02-11T08:06:34.580Z,4.66
2019-02-11T08:07:41.215Z,4.67
2019-02-11T08:08:48.383Z,4.66
2019-02-11T08:09:55.160Z,4.66
2019-02-11T08:11:01.801Z,4.66
2019-02-11T08:12:08.480Z,4.66
2019-02-11T08:13:15.603Z,4.66
2019-02-11T08:14:22.795Z,4.66
2019-02-11T08:15:29.423Z,4.67
2019-02-11T08:16:36.111Z,4.67
2019-02-11T08:17:43.237Z,4.67
2019-02-11T08:18:50.277Z,4.68
2019-02-11T08:19:57.357Z,4.69
2019-02-11T08:21:04.806Z,4.69
2019-02-11T08:22:11.415Z,4.69
2019-02-11T08:23:18.586Z,4.70
2019-02-11T08:24:25.761Z,4.71
2019-02-11T08:25:32.419Z,4.70
2019-02-11T08:26:39.508Z,4.71
2019-02-11T08:27:46.616Z,4.71
2019-02-11T08:28:53.812Z,4.71
2019-02-11T08:30:00.455Z,4.72
2019-02-11T08:31:07.292Z,4.71
2019-02-11T08:32:13.960Z,4.71
2019-02-11T08:33:21.128Z,4.71
2019-02-11T08:34:27.748Z,4.73
2019-02-11T08:35:34.851Z,4.72
2019-02-11T08:36:42.025Z,4.72
2019-02-11T08:37:48.607Z,4.73
2019-02-11T08:38:55.688Z,4.74
2019-02-11T08:40:02.960Z,4.74
2019-02-11T08:41:09.715Z,4.76
2019-02-11T08:42:16.880Z,4.76
2019-02-11T08:43:24.195Z,4.77
2019-02-11T08:44:30.788Z,4.75
2019-02-11T08:45:37.999Z,4.76
2019-02-11T08:46:44.572Z,4.76
2019-02-11T08:47:51.742Z,4.78
2019-02-11T08:48:58.371Z,4.78
2019-02-11T08:50:05.536Z,4.79
2019-02-11T08:51:12.330Z,4.80
2019-02-11T08:52:19.484Z,4.80
2019-02-11T08:53:26.661Z,4.81
2019-02-11T08:54:33.836Z,4.81
2019-02-11T08:55:40.991Z,4.81
2019-02-11T08:56:48.101Z,4.81
2019-02-11T08:57:55.205Z,4.83
2019-02-11T08:59:02.348Z,4.83
2019-02-11T09:00:09.047Z,4.83
2019-02-11T09:01:15.811Z,4.83
2019-02-11T09:02:22.983Z,4.84
2019-02-11T09:03:29.667Z,4.85
2019-02-11T09:04:36.886Z,4.86
2019-02-11T09:05:43.499Z,4.85
2019-02-11T09:06:50.579Z,4.87
2019-02-11T09:07:57.582Z,4.86
2019-02-11T09:09:04.791Z,4.89
2019-02-11T09:10:11.477Z,4.88
2019-02-11T09:11:18.252Z,4.90
2019-02-11T09:12:24.953Z,4.90
2019-02-11T09:13:31.692Z,4.90
2019-02-11T09:14:38.356Z,4.93
2019-02-11T09:15:45.468Z,4.92
2019-02-11T09:16:52.671Z,4.93
2019-02-11T09:17:59.346Z,4.92
2019-02-11T09:19:06.556Z,4.94
2019-02-11T09:20:13.149Z,4.94
2019-02-11T09:21:20.324Z,4.95
2019-02-11T09:22:27.485Z,4.95
2019-02-11T09:23:34.654Z,4.95
2019-02-11T09:24:41.313Z,4.96
2019-02-11T09:25:48.456Z,4.95
2019-02-11T09:26:55.566Z,4.96
2019-02-11T09:28:02.635Z,4.96
2019-02-11T09:29:09.795Z,4.98
2019-02-11T09:30:16.946Z,4.97
2019-02-11T09:31:24.329Z,4.99
2019-02-11T09:32:30.990Z,5.00
2019-02-11T09:33:38.179Z,5.00
2019-02-11T09:34:45.247Z,5.01
2019-02-11T09:35:52.426Z,5.02
2019-02-11T09:36:59.268Z,5.02
2019-02-11T09:38:06.035Z,5.02
2019-02-11T09:39:13.163Z,5.02
2019-02-11T09:40:20.280Z,5.04
2019-02-11T09:41:27.488Z,5.05
2019-02-11T09:42:34.047Z,5.05
2019-02-11T09:43:41.164Z,5.05
2019-02-11T09:44:48.321Z,5.07
2019-02-11T09:45:54.895Z,5.07
2019-02-11T09:47:02.122Z,5.07
2019-02-11T09:48:09.113Z,5.08
2019-02-11T09:49:15.917Z,5.09
2019-02-11T09:50:22.635Z,5.09
2019-02-11T09:51:29.433Z,5.09
2019-02-11T09:52:36.559Z,5.11
2019-02-11T09:53:43.228Z,5.11
2019-02-11T09:54:50.307Z,5.10
2019-02-11T09:55:57.492Z,5.11
2019-02-11T09:57:04.588Z,5.13
2019-02-11T09:58:11.726Z,5.13
2019-02-11T09:59:18.875Z,5.14
2019-02-11T10:00:25.971Z,5.14
2019-02-11T10:01:32.747Z,5.15
2019-02-11T10:02:39.380Z,5.15
2019-02-11T10:03:46.530Z,5.16
2019-02-11T10:04:53.668Z,5.16
2019-02-11T10:06:05.136Z,5.16
2019-02-11T10:07:07.339Z,5.15
2019-02-11T10:08:14.007Z,5.17
2019-02-11T10:09:21.071Z,5.18
2019-02-11T10:10:28.204Z,5.18
2019-02-11T10:11:35.299Z,5.19
2019-02-11T10:12:42.416Z,5.18
2019-02-11T10:13:49.491Z,5.19
2019-02-11T10:14:56.696Z,5.21
2019-02-11T10:16:03.287Z,5.20
2019-02-11T10:17:10.376Z,5.21
2019-02-11T10:18:17.496Z,5.21
2019-02-11T10:19:24.175Z,5.23
2019-02-11T10:20:31.287Z,5.23
2019-02-11T10:21:38.276Z,5.25
2019-02-11T10:22:44.928Z,5.26
2019-02-11T10:23:51.665Z,5.24
2019-02-11T10:24:58.225Z,5.28
2019-02-11T10:26:05.409Z,5.28
2019-02-11T10:27:11.977Z,5.28
2019-02-11T10:28:19.071Z,5.28
2019-02-11T10:29:26.119Z,5.29
2019-02-11T10:30:33.245Z,5.30
2019-02-11T10:31:39.921Z,5.30
2019-02-11T10:32:47.051Z,5.31
2019-02-11T10:33:54.211Z,5.32
2019-02-11T10:35:00.893Z,5.33
2019-02-11T10:36:07.868Z,5.33
2019-02-11T10:37:14.635Z,5.34
2019-02-11T10:38:21.309Z,5.35
2019-02-11T10:39:27.969Z,5.35
2019-02-11T10:40:34.962Z,5.35
2019-02-11T10:41:42.056Z,5.36
2019-02-11T10:42:49.856Z,5.37
2019-02-11T10:43:56.763Z,5.38
2019-02-11T10:45:03.506Z,5.40
2019-02-11T10:46:10.347Z,5.40
2019-02-11T10:47:17.713Z,5.40
2019-02-11T10:48:25.427Z,5.42
2019-02-11T10:49:30.439Z,5.42
2019-02-11T10:50:37.609Z,5.44
2019-02-11T10:51:44.716Z,5.45
2019-02-11T10:52:51.948Z,5.45
2019-02-11T10:53:58.638Z,5.45
2019-02-11T10:55:05.773Z,5.46
2019-02-11T10:56:12.615Z,5.47
2019-02-11T10:57:19.718Z,5.48
2019-02-11T10:58:26.884Z,5.50
2019-02-11T10:59:33.604Z,5.50
2019-02-11T11:00:40.908Z,5.50
2019-02-11T11:01:47.791Z,5.53
2019-02-11T11:02:54.453Z,5.53
2019-02-11T11:04:01.566Z,5.54
2019-02-11T11:05:08.811Z,5.57
2019-02-11T11:06:15.772Z,5.58
2019-02-11T11:07:22.923Z,5.58
2019-02-11T11:08:30.051Z,5.59
2019-02-11T11:09:37.256Z,5.61
2019-02-11T11:10:43.887Z,5.62
2019-02-11T11:11:50.632Z,5.64
2019-02-11T11:12:57.744Z,5.67
2019-02-11T11:14:04.889Z,5.66
2019-02-11T11:15:11.922Z,5.67
2019-02-11T11:16:19.028Z,5.70
2019-02-11T11:17:26.132Z,5.71
2019-02-11T11:18:33.275Z,5.73
2019-02-11T11:19:40.404Z,5.74
2019-02-11T11:20:47.563Z,5.76
2019-02-11T11:21:54.595Z,5.77
2019-02-11T11:23:01.773Z,5.78
2019-02-11T11:24:08.453Z,5.79
2019-02-11T11:25:15.148Z,5.81
2019-02-11T11:26:21.969Z,5.83
2019-02-11T11:27:28.584Z,5.85
2019-02-11T11:28:35.772Z,5.87
2019-02-11T11:29:42.860Z,5.87
2019-02-11T11:30:49.983Z,5.88
2019-02-11T11:31:57.054Z,5.89
2019-02-11T11:33:04.182Z,5.92
2019-02-11T11:34:10.983Z,5.91
2019-02-11T11:35:17.712Z,5.94
2019-02-11T11:36:24.444Z,5.95
2019-02-11T11:37:31.567Z,5.96
2019-02-11T11:38:38.812Z,5.97
2019-02-11T11:39:45.536Z,5.99
2019-02-11T11:40:52.224Z,6.00
2019-02-11T11:41:58.849Z,6.01
2019-02-11T11:43:06.026Z,6.02
2019-02-11T11:44:13.132Z,6.03
2019-02-11T11:45:22.244Z,6.04
2019-02-11T11:46:27.372Z,6.04
2019-02-11T11:47:34.632Z,6.04
2019-02-11T11:48:41.116Z,6.06
2019-02-11T11:49:48.217Z,6.07
2019-02-11T11:50:55.324Z,6.07
2019-02-11T11:52:02.508Z,6.10
2019-02-11T11:53:09.204Z,6.10
2019-02-11T11:54:16.383Z,6.12
2019-02-11T11:55:23.043Z,6.12
2019-02-11T11:56:29.773Z,6.13
2019-02-11T11:57:36.980Z,6.13
2019-02-11T11:58:43.659Z,6.15
2019-02-11T11:59:50.797Z,6.14
2019-02-11T12:00:57.843Z,6.16
2019-02-11T12:02:04.990Z,6.18
2019-02-11T12:03:12.137Z,6.17
2019-02-11T12:04:18.924Z,6.17
2019-02-11T12:05:25.562Z,6.20
2019-02-11T12:06:32.227Z,6.20
2019-02-11T12:07:39.460Z,6.22
2019-02-11T12:08:46.218Z,6.22
2019-02-11T12:09:52.940Z,6.25
2019-02-11T12:10:59.537Z,6.25
2019-02-11T12:12:06.787Z,6.27
2019-02-11T12:13:22.688Z,6.26
2019-02-11T12:14:20.110Z,6.26
2019-02-11T12:15:27.393Z,6.27
2019-02-11T12:16:34.323Z,6.30
2019-02-11T12:17:41.084Z,6.28
2019-02-11T12:18:47.842Z,6.29
2019-02-11T12:19:54.928Z,6.30
2019-02-11T12:21:02.090Z,6.32
2019-02-11T12:22:12.663Z,6.31
2019-02-11T12:23:15.521Z,6.33
2019-02-11T12:24:22.275Z,6.33
2019-02-11T12:25:28.912Z,6.33
2019-02-11T12:26:35.998Z,6.34
2019-02-11T12:27:43.127Z,6.35
2019-02-11T12:28:50.280Z,6.37
2019-02-11T12:29:57.395Z,6.37
2019-02-11T12:31:04.579Z,6.36
2019-02-11T12:32:11.162Z,6.38
2019-02-11T12:33:18.294Z,6.39
2019-02-11T12:34:25.496Z,6.40
2019-02-11T12:35:32.172Z,6.41
2019-02-11T12:36:39.273Z,6.41
2019-02-11T12:37:46.383Z,6.41
2019-02-11T12:38:53.231Z,6.43
2019-02-11T12:39:59.860Z,6.44
2019-02-11T12:41:06.638Z,6.45
2019-02-11T12:42:13.774Z,6.45
2019-02-11T12:43:20.943Z,6.46
2019-02-11T12:44:28.044Z,6.47
2019-02-11T12:45:35.183Z,6.48
2019-02-11T12:46:42.319Z,6.47
2019-02-11T12:47:50.233Z,6.48
2019-02-11T12:48:56.321Z,6.50
2019-02-11T12:50:03.562Z,6.51
2019-02-11T12:51:10.384Z,6.49
2019-02-11T12:52:17.009Z,6.51
2019-02-11T12:53:24.162Z,6.53
2019-02-11T12:54:31.303Z,6.52
2019-02-11T12:55:38.113Z,6.53
2019-02-11T12:56:44.753Z,6.54
2019-02-11T12:57:51.981Z,6.53
2019-02-11T12:58:58.644Z,6.55
2019-02-11T13:00:05.797Z,6.56
2019-02-11T13:01:12.748Z,6.57
2019-02-11T13:02:19.879Z,6.57
2019-02-11T13:03:26.972Z,6.58
2019-02-11T13:04:34.307Z,6.58
2019-02-11T13:05:45.723Z,6.59
2019-02-11T13:06:47.575Z,6.61
2019-02-11T13:07:54.761Z,6.59
2019-02-11T13:09:01.908Z,6.61
2019-02-11T13:10:09.372Z,6.63
2019-02-11T13:11:16.085Z,6.63
2019-02-11T13:12:22.899Z,6.64
2019-02-11T13:13:29.584Z,6.64
2019-02-11T13:14:36.538Z,6.64
2019-02-11T13:15:59.979Z,6.64
2019-02-11T13:16:50.379Z,6.66
2019-02-11T13:17:57.611Z,6.66
2019-02-11T13:19:03.969Z,6.65
2019-02-11T13:20:11.814Z,6.67
2019-02-11T13:21:17.494Z,6.67
2019-02-11T13:22:24.437Z,6.68
2019-02-11T13:23:31.068Z,6.69
2019-02-11T13:24:38.239Z,6.69
2019-02-11T13:25:44.910Z,6.71
2019-02-11T13:26:51.637Z,6.72
2019-02-11T13:27:58.284Z,6.71
2019-02-11T13:29:05.415Z,6.72
2019-02-11T13:30:12.560Z,6.73
2019-02-11T13:31:19.497Z,6.73
2019-02-11T13:32:26.126Z,6.74
2019-02-11T13:33:33.203Z,6.75
2019-02-11T13:34:40.350Z,6.75
2019-02-11T13:35:47.474Z,6.76
2019-02-11T13:36:54.631Z,6.77
2019-02-11T13:38:01.729Z,6.77
2019-02-11T13:39:08.908Z,6.78
2019-02-11T13:40:15.522Z,6.79
2019-02-11T13:41:22.757Z,6.80
2019-02-11T13:42:29.366Z,6.80
2019-02-11T13:43:36.571Z,6.81
2019-02-11T13:44:43.428Z,6.81
2019-02-11T13:45:50.205Z,6.81
2019-02-11T13:46:56.936Z,6.81
2019-02-11T13:48:04.035Z,6.82
2019-02-11T13:49:10.799Z,6.82
2019-02-11T13:50:17.575Z,6.83
2019-02-11T13:51:24.623Z,6.83
2019-02-11T13:52:31.305Z,6.84
2019-02-11T13:53:38.031Z,6.85
2019-02-11T13:54:44.605Z,6.83
2019-02-11T13:55:51.840Z,6.86
2019-02-11T13:56:58.490Z,6.87
2019-02-11T13:58:05.321Z,6.87
2019-02-11T13:59:11.992Z,6.87
2019-02-11T14:00:19.198Z,6.87
2019-02-11T14:01:25.888Z,6.88
2019-02-11T14:02:32.486Z,6.88
2019-02-11T14:03:39.384Z,6.89
2019-02-11T14:04:46.345Z,6.90
2019-02-11T14:05:53.059Z,6.90
2019-02-11T14:06:59.759Z,6.90
2019-02-11T14:08:06.589Z,6.90
2019-02-11T14:09:13.325Z,6.93
2019-02-11T14:10:19.936Z,6.93
2019-02-11T14:11:27.107Z,6.94
2019-02-11T14:12:33.859Z,6.94
2019-02-11T14:13:40.454Z,6.94
2019-02-11T14:14:47.838Z,6.95
2019-02-11T14:15:54.474Z,6.95
2019-02-11T14:17:01.582Z,6.97
2019-02-11T14:18:13.058Z,6.97
2019-02-11T14:19:15.186Z,6.97
2019-02-11T14:20:22.006Z,6.98
2019-02-11T14:21:28.549Z,6.99
2019-02-11T14:22:35.739Z,6.99
2019-02-11T14:23:42.480Z,7.00
2019-02-11T14:24:49.107Z,6.99
2019-02-11T14:25:56.237Z,7.01
2019-02-11T14:27:03.451Z,7.02
2019-02-11T14:28:10.179Z,7.01
2019-02-11T14:29:16.884Z,7.02
2019-02-11T14:30:24.078Z,7.02
2019-02-11T14:31:31.317Z,7.03
2019-02-11T14:32:37.603Z,7.04
2019-02-11T14:33:44.366Z,7.04
2019-02-11T14:34:50.975Z,7.05
2019-02-11T14:35:57.615Z,7.06
2019-02-11T14:37:04.854Z,7.05
2019-02-11T14:38:11.475Z,7.05
2019-02-11T14:39:18.542Z,7.07
2019-02-11T14:40:25.610Z,7.07
2019-02-11T14:41:32.766Z,7.08
2019-02-11T14:42:39.946Z,7.09
2019-02-11T14:43:46.705Z,7.08
2019-02-11T14:44:55.355Z,7.09
2019-02-11T14:46:00.604Z,7.08
2019-02-11T14:47:07.244Z,7.09
2019-02-11T14:48:26.916Z,7.11
2019-02-11T14:49:21.022Z,7.11
2019-02-11T14:50:28.086Z,7.10
2019-02-11T14:51:35.216Z,7.11